createdAt,value
2023-05-10T00:00:47.729Z,100.00
2023-05-10T00:03:14.834Z,100.00
2023-05-10T00:05:42.010Z,100.00
2023-05-10T00:08:09.062Z,100.00
2023-05-10T00:10:36.238Z,100.00
2023-05-10T00:13:03.269Z,100.00
2023-05-10T00:15:31.632Z,100.00
2023-05-10T00:17:58.600Z,100.00
2023-05-10T00:20:25.825Z,100.00
2023-05-10T00:22:53.121Z,100.00
2023-05-10T00:25:20.127Z,100.00
2023-05-10T00:27:47.110Z,100.00
2023-05-10T00:30:14.391Z,100.00
2023-05-10T00:32:41.626Z,100.00
2023-05-10T00:35:09.265Z,100.00
2023-05-10T00:37:36.634Z,100.00
2023-05-10T00:40:03.951Z,100.00
2023-05-10T00:42:30.946Z,100.00
2023-05-10T00:44:58.529Z,100.00
2023-05-10T00:47:25.873Z,100.00
2023-05-10T00:49:53.269Z,100.00
2023-05-10T00:52:20.800Z,100.00
2023-05-10T00:54:48.691Z,100.00
2023-05-10T00:57:15.938Z,100.00
2023-05-10T00:59:43.022Z,100.00
2023-05-10T01:02:10.321Z,100.00
2023-05-10T01:04:38.487Z,100.00
2023-05-10T01:07:05.506Z,100.00
2023-05-10T01:09:34.169Z,100.00
2023-05-10T01:12:02.913Z,100.00
2023-05-10T01:14:31.201Z,100.00
2023-05-10T01:16:58.367Z,100.00
2023-05-10T01:19:29.703Z,100.00
2023-05-10T01:22:50.923Z,100.00
2023-05-10T01:25:38.223Z,100.00
2023-05-10T01:28:22.040Z,100.00
2023-05-10T01:31:16.718Z,100.00
2023-05-10T01:34:00.338Z,100.00
2023-05-10T01:36:49.171Z,100.00
2023-05-10T01:39:37.719Z,100.00
2023-05-10T01:42:26.368Z,100.00
2023-05-10T01:45:17.784Z,100.00
2023-05-10T01:47:50.790Z,100.00
2023-05-10T01:50:30.469Z,100.00
2023-05-10T01:53:01.189Z,100.00
2023-05-10T01:55:40.708Z,100.00
2023-05-10T01:58:14.038Z,100.00
2023-05-10T02:00:46.608Z,100.00
2023-05-10T02:03:16.964Z,100.00
2023-05-10T02:05:47.037Z,100.00
2023-05-10T02:08:18.470Z,100.00
2023-05-10T02:10:48.863Z,100.00
2023-05-10T02:13:19.027Z,100.00
2023-05-10T02:15:50.915Z,100.00
2023-05-10T02:18:19.467Z,100.00
2023-05-10T02:20:48.305Z,100.00
2023-05-10T02:23:19.211Z,100.00
2023-05-10T02:25:49.068Z,100.00
2023-05-10T02:28:19.141Z,100.00
2023-05-10T02:30:48.532Z,100.00
2023-05-10T02:33:16.145Z,100.00
2023-05-10T02:35:43.583Z,100.00
2023-05-10T02:38:12.788Z,100.00
2023-05-10T02:40:42.414Z,100.00
2023-05-10T02:43:15.447Z,100.00
2023-05-10T02:45:44.607Z,100.00
2023-05-10T02:48:11.804Z,100.00
2023-05-10T02:50:46.275Z,100.00
2023-05-10T02:53:21.948Z,100.00
2023-05-10T02:55:58.120Z,100.00
2023-05-10T02:58:25.387Z,100.00
2023-05-10T03:00:52.423Z,100.00
2023-05-10T03:03:21.034Z,100.00
2023-05-10T03:05:50.413Z,100.00
2023-05-10T03:08:17.547Z,100.00
2023-05-10T03:11:25.313Z,100.00
2023-05-10T03:14:26.845Z,100.00
2023-05-10T03:17:12.643Z,100.00
2023-05-10T03:19:59.312Z,100.00
2023-05-10T03:22:39.191Z,100.00
2023-05-10T03:25:11.867Z,100.00
2023-05-10T03:27:44.315Z,100.00
2023-05-10T03:30:14.411Z,100.00
2023-05-10T03:32:42.223Z,100.00
2023-05-10T03:35:14.309Z,100.00
2023-05-10T03:37:42.054Z,100.00
2023-05-10T03:40:09.916Z,100.00
2023-05-10T03:42:39.378Z,100.00
2023-05-10T03:45:08.068Z,100.00
2023-05-10T03:47:35.031Z,100.00
2023-05-10T03:50:03.421Z,100.00
2023-05-10T03:52:30.659Z,100.00
2023-05-10T03:54:57.640Z,100.00
2023-05-10T03:57:25.261Z,100.00
2023-05-10T03:59:52.391Z,100.00
2023-05-10T04:02:19.404Z,100.00
2023-05-10T04:04:46.591Z,100.00
2023-05-10T04:07:13.575Z,100.00
2023-05-10T04:09:41.172Z,100.00
2023-05-10T04:12:10.766Z,100.00
2023-05-10T04:14:38.236Z,100.00
2023-05-10T04:17:05.429Z,100.00
2023-05-10T04:19:33.029Z,100.00
2023-05-10T04:22:00.311Z,100.00
2023-05-10T04:24:27.313Z,100.00
2023-05-10T04:26:57.758Z,100.00
2023-05-10T04:29:25.022Z,100.00
2023-05-10T04:31:52.041Z,100.00
2023-05-10T04:34:19.707Z,100.00
2023-05-10T04:36:52.679Z,100.00
2023-05-10T04:39:19.575Z,100.00
2023-05-10T04:41:54.086Z,100.00
2023-05-10T04:44:21.183Z,100.00
2023-05-10T04:46:48.365Z,100.00
2023-05-10T04:49:15.474Z,100.00
2023-05-10T04:51:42.505Z,100.00
2023-05-10T04:54:09.558Z,100.00
2023-05-10T04:56:36.599Z,100.00
2023-05-10T04:59:03.678Z,100.00
2023-05-10T05:01:30.787Z,100.00
2023-05-10T05:03:58.144Z,100.00
2023-05-10T05:06:26.010Z,100.00
2023-05-10T05:08:53.045Z,100.00
2023-05-10T05:11:20.401Z,100.00
2023-05-10T05:13:47.699Z,100.00
2023-05-10T05:16:14.680Z,100.00
2023-05-10T05:18:41.661Z,100.00
2023-05-10T05:21:20.492Z,100.00
2023-05-10T05:23:47.572Z,100.00
2023-05-10T05:26:16.069Z,100.00
2023-05-10T05:28:43.325Z,100.00
2023-05-10T05:31:10.537Z,100.00
2023-05-10T05:33:37.879Z,100.00
2023-05-10T05:36:06.341Z,100.00
2023-05-10T05:38:33.756Z,100.00
2023-05-10T05:41:01.043Z,100.00
2023-05-10T05:43:28.283Z,100.00
2023-05-10T05:45:56.257Z,100.00
2023-05-10T05:48:23.240Z,100.00
2023-05-10T05:50:50.317Z,100.00
2023-05-10T05:53:17.279Z,100.00
2023-05-10T05:55:58.879Z,100.00
2023-05-10T05:58:26.872Z,100.00
2023-05-10T06:00:53.994Z,100.00
2023-05-10T06:03:21.843Z,100.00
2023-05-10T06:05:49.364Z,100.00
2023-05-10T06:08:16.493Z,100.00
2023-05-10T06:10:43.583Z,100.00
2023-05-10T06:13:10.927Z,100.00
2023-05-10T06:15:38.340Z,100.00
2023-05-10T06:18:05.459Z,100.00
2023-05-10T06:20:32.627Z,100.00
2023-05-10T06:22:59.890Z,100.00
2023-05-10T06:25:27.162Z,100.00
2023-05-10T06:27:58.221Z,100.00
2023-05-10T06:30:29.120Z,100.00
2023-05-10T06:32:56.393Z,100.00
2023-05-10T06:35:23.972Z,100.00
2023-05-10T06:37:51.930Z,100.00
2023-05-10T06:40:19.731Z,100.00
2023-05-10T06:42:48.138Z,100.00
2023-05-10T06:45:16.526Z,100.00
2023-05-10T06:47:44.082Z,100.00
2023-05-10T06:50:12.604Z,100.00
2023-05-10T06:52:40.163Z,100.00
2023-05-10T06:55:08.002Z,100.00
2023-05-10T06:57:35.199Z,100.00
2023-05-10T07:00:05.219Z,100.00
2023-05-10T07:02:32.319Z,100.00
2023-05-10T07:05:14.840Z,100.00
2023-05-10T07:07:42.261Z,100.00
2023-05-10T07:10:10.142Z,100.00
2023-05-10T07:12:37.201Z,100.00
2023-05-10T07:15:05.287Z,100.00
2023-05-10T07:17:32.434Z,100.00
2023-05-10T07:19:59.556Z,100.00
2023-05-10T07:22:26.869Z,100.00
2023-05-10T07:24:54.094Z,100.00
2023-05-10T07:27:21.035Z,100.00
2023-05-10T07:29:48.050Z,100.00
2023-05-10T07:32:15.119Z,100.00
2023-05-10T07:34:42.325Z,100.00
2023-05-10T07:37:09.404Z,100.00
2023-05-10T07:39:36.422Z,100.00
2023-05-10T07:42:03.919Z,100.00
2023-05-10T07:44:30.888Z,100.00
2023-05-10T07:46:57.860Z,100.00
2023-05-10T07:49:25.374Z,100.00
2023-05-10T07:51:52.396Z,100.00
2023-05-10T07:54:19.424Z,100.00
2023-05-10T07:56:48.168Z,100.00
2023-05-10T07:59:18.699Z,100.00
2023-05-10T08:01:46.149Z,100.00
2023-05-10T08:04:13.310Z,100.00
2023-05-10T08:06:41.219Z,100.00
2023-05-10T08:09:09.508Z,100.00
2023-05-10T08:11:36.525Z,100.00
2023-05-10T08:14:03.640Z,100.00
2023-05-10T08:16:30.871Z,100.00
2023-05-10T08:18:57.993Z,100.00
2023-05-10T08:21:25.105Z,100.00
2023-05-10T08:23:52.086Z,100.00
2023-05-10T08:26:19.021Z,100.00
2023-05-10T08:28:46.000Z,100.00
2023-05-10T08:31:13.120Z,100.00
2023-05-10T08:33:42.203Z,100.00
2023-05-10T08:36:10.280Z,100.00
2023-05-10T08:38:38.940Z,100.00
2023-05-10T08:41:07.084Z,100.00
2023-05-10T08:43:37.033Z,100.00
2023-05-10T08:46:08.319Z,100.00
2023-05-10T08:48:36.461Z,100.00
2023-05-10T08:51:05.287Z,100.00
2023-05-10T08:53:36.394Z,100.00
2023-05-10T08:56:04.345Z,100.00
2023-05-10T08:58:32.934Z,100.00
2023-05-10T09:01:01.858Z,100.00
2023-05-10T09:03:28.944Z,100.00
2023-05-10T09:05:59.171Z,98.09
2023-05-10T09:08:27.345Z,97.26
2023-05-10T09:10:56.161Z,96.72
2023-05-10T09:13:24.679Z,95.27
2023-05-10T09:15:53.503Z,94.89
2023-05-10T09:18:20.695Z,93.86
2023-05-10T09:20:47.752Z,93.14
2023-05-10T09:23:14.728Z,90.52
2023-05-10T09:25:44.879Z,90.08
2023-05-10T09:28:12.471Z,89.08
2023-05-10T09:30:40.201Z,90.52
2023-05-10T09:33:07.316Z,91.71
2023-05-10T09:35:34.962Z,92.38
2023-05-10T09:38:05.599Z,91.72
2023-05-10T09:40:32.993Z,92.63
2023-05-10T09:43:08.472Z,92.58
2023-05-10T09:45:38.676Z,91.85
2023-05-10T09:48:07.037Z,90.17
2023-05-10T09:50:35.147Z,89.18
2023-05-10T09:53:04.883Z,89.40
2023-05-10T09:55:46.852Z,86.94
2023-05-10T09:58:15.365Z,89.35
2023-05-10T10:00:53.185Z,88.59
2023-05-10T10:03:25.330Z,89.06
2023-05-10T10:05:54.182Z,89.07
2023-05-10T10:08:21.554Z,89.79
2023-05-10T10:10:53.063Z,86.97
2023-05-10T10:13:20.447Z,86.55
2023-05-10T10:15:52.064Z,86.67
2023-05-10T10:18:24.509Z,88.51
2023-05-10T10:20:51.784Z,88.21
2023-05-10T10:23:18.804Z,87.61
2023-05-10T10:25:49.811Z,87.99
2023-05-10T10:28:40.530Z,89.06
2023-05-10T10:31:41.703Z,88.59
2023-05-10T10:34:14.007Z,89.04
2023-05-10T10:36:46.149Z,87.82
2023-05-10T10:39:13.723Z,86.03
2023-05-10T10:41:55.282Z,84.13
2023-05-10T10:44:41.255Z,85.41
2023-05-10T10:47:30.818Z,82.33
2023-05-10T10:50:01.145Z,83.06
2023-05-10T10:52:42.227Z,82.59
2023-05-10T10:55:20.190Z,83.12
2023-05-10T10:58:01.469Z,83.41
2023-05-10T11:00:37.928Z,83.83
2023-05-10T11:03:15.550Z,85.54
2023-05-10T11:05:43.686Z,85.24
2023-05-10T11:08:46.101Z,85.86
2023-05-10T11:11:16.149Z,86.58
2023-05-10T11:13:51.445Z,86.91
2023-05-10T11:16:25.292Z,84.94
2023-05-10T11:19:03.139Z,85.29
2023-05-10T11:21:32.273Z,85.99
2023-05-10T11:24:02.016Z,85.80
2023-05-10T11:26:35.719Z,85.72
2023-05-10T11:29:04.129Z,87.21
2023-05-10T11:31:31.206Z,88.07
2023-05-10T11:34:02.678Z,89.17
2023-05-10T11:36:34.859Z,88.99
2023-05-10T11:39:01.870Z,89.52
2023-05-10T11:41:31.133Z,89.35
2023-05-10T11:43:59.260Z,90.28
2023-05-10T11:46:29.266Z,91.06
2023-05-10T11:49:05.363Z,90.27
2023-05-10T11:51:36.910Z,89.48
2023-05-10T11:54:10.317Z,87.77
2023-05-10T11:56:39.624Z,88.08
2023-05-10T11:59:07.434Z,89.62
2023-05-10T12:01:36.100Z,85.85
2023-05-10T12:04:03.829Z,86.22
2023-05-10T12:06:38.047Z,85.48
2023-05-10T12:09:09.191Z,86.98
2023-05-10T12:11:44.045Z,88.48
2023-05-10T12:14:12.253Z,85.79
2023-05-10T12:16:39.248Z,83.24
2023-05-10T12:19:06.554Z,84.59
2023-05-10T12:21:34.293Z,86.53
2023-05-10T12:24:04.694Z,85.97
2023-05-10T12:26:32.791Z,85.86
2023-05-10T12:29:18.304Z,85.78
2023-05-10T12:31:57.855Z,85.88
2023-05-10T12:34:24.866Z,81.77
2023-05-10T12:36:54.380Z,80.84
2023-05-10T12:39:21.426Z,81.05
2023-05-10T12:41:48.353Z,80.05
2023-05-10T12:44:15.923Z,80.85
2023-05-10T12:46:42.834Z,81.68
2023-05-10T12:49:10.054Z,82.13
2023-05-10T12:51:37.124Z,81.37
2023-05-10T12:54:04.590Z,82.28
2023-05-10T12:56:31.521Z,82.62
2023-05-10T12:58:58.474Z,83.38
2023-05-10T13:01:25.517Z,83.79
2023-05-10T13:03:52.555Z,84.54
2023-05-10T13:06:19.519Z,84.76
2023-05-10T13:08:46.412Z,85.29
2023-05-10T13:11:17.660Z,86.58
2023-05-10T13:13:44.663Z,86.84
2023-05-10T13:16:11.607Z,87.50
2023-05-10T13:18:38.947Z,88.81
2023-05-10T13:21:06.394Z,89.60
2023-05-10T13:23:33.352Z,90.01
2023-05-10T13:26:00.318Z,90.66
2023-05-10T13:28:27.396Z,91.50
2023-05-10T13:30:54.412Z,91.48
2023-05-10T13:33:21.378Z,91.85
2023-05-10T13:35:48.332Z,92.30
2023-05-10T13:38:15.306Z,92.73
2023-05-10T13:40:42.381Z,92.78
2023-05-10T13:43:09.368Z,93.44
2023-05-10T13:45:36.665Z,92.44
2023-05-10T13:48:03.763Z,92.87
2023-05-10T13:50:31.102Z,92.38
2023-05-10T13:52:58.068Z,91.83
2023-05-10T13:55:25.023Z,91.95
2023-05-10T13:57:52.123Z,92.56
2023-05-10T14:00:19.419Z,92.36
2023-05-10T14:02:46.538Z,90.19
2023-05-10T14:05:14.007Z,89.39
2023-05-10T14:07:42.100Z,89.84
2023-05-10T14:10:09.424Z,89.34
2023-05-10T14:12:36.353Z,89.74
2023-05-10T14:15:03.795Z,90.61
2023-05-10T14:17:30.734Z,88.46
2023-05-10T14:19:57.973Z,88.31
2023-05-10T14:22:24.874Z,88.49
2023-05-10T14:24:51.930Z,90.02
2023-05-10T14:27:18.968Z,89.83
2023-05-10T14:29:45.913Z,88.37
2023-05-10T14:32:12.973Z,85.13
2023-05-10T14:34:40.038Z,84.54
2023-05-10T14:37:07.336Z,84.39
2023-05-10T14:39:34.411Z,82.03
2023-05-10T14:42:01.466Z,82.76
2023-05-10T14:44:28.658Z,82.73
2023-05-10T14:46:56.060Z,81.75
2023-05-10T14:49:25.661Z,80.90
2023-05-10T14:51:53.172Z,79.99
2023-05-10T14:54:20.385Z,80.31
2023-05-10T14:56:47.638Z,81.28
2023-05-10T14:59:14.563Z,81.21
2023-05-10T15:01:43.037Z,80.79
2023-05-10T15:04:10.652Z,81.53
2023-05-10T15:06:38.033Z,81.91
2023-05-10T15:09:05.298Z,82.40
2023-05-10T15:11:32.384Z,81.44
2023-05-10T15:13:59.385Z,79.78
2023-05-10T15:16:26.534Z,78.89
2023-05-10T15:18:53.771Z,71.24
2023-05-10T15:21:20.800Z,73.37
2023-05-10T15:23:47.803Z,73.06
2023-05-10T15:26:14.918Z,69.24
2023-05-10T15:28:42.074Z,67.81
2023-05-10T15:31:09.091Z,67.81
2023-05-10T15:33:39.757Z,69.44
2023-05-10T15:36:07.511Z,67.53
2023-05-10T15:38:34.504Z,70.05
2023-05-10T15:41:01.511Z,70.84
2023-05-10T15:43:28.455Z,73.40
2023-05-10T15:45:55.377Z,73.43
2023-05-10T15:48:22.430Z,73.13
2023-05-10T15:50:49.399Z,73.69
2023-05-10T15:53:16.395Z,75.27
2023-05-10T15:55:43.888Z,75.44
2023-05-10T15:58:11.373Z,74.07
2023-05-10T16:00:39.117Z,72.48
2023-05-10T16:03:06.855Z,72.51
2023-05-10T16:05:34.095Z,71.27
2023-05-10T16:08:02.183Z,69.00
2023-05-10T16:10:33.304Z,69.73
2023-05-10T16:13:00.644Z,69.86
2023-05-10T16:15:28.188Z,67.48
2023-05-10T16:17:55.435Z,68.71
2023-05-10T16:20:22.500Z,69.04
2023-05-10T16:22:49.676Z,68.13
2023-05-10T16:25:17.268Z,67.31
2023-05-10T16:27:44.524Z,66.65
2023-05-10T16:30:12.127Z,61.81
2023-05-10T16:32:39.536Z,64.80
2023-05-10T16:35:07.705Z,65.32
2023-05-10T16:37:34.958Z,63.40
2023-05-10T16:40:02.013Z,65.22
2023-05-10T16:42:29.350Z,67.29
2023-05-10T16:44:56.370Z,68.58
2023-05-10T16:47:26.652Z,68.52
2023-05-10T16:49:53.882Z,68.07
2023-05-10T16:52:20.860Z,69.61
2023-05-10T16:54:47.863Z,70.76
2023-05-10T16:57:14.903Z,71.63
2023-05-10T16:59:42.095Z,71.36
2023-05-10T17:02:09.269Z,71.54
2023-05-10T17:04:36.502Z,73.20
2023-05-10T17:07:04.015Z,73.55
2023-05-10T17:09:30.956Z,73.39
2023-05-10T17:11:58.006Z,74.60
2023-05-10T17:14:24.969Z,75.46
2023-05-10T17:16:53.166Z,74.90
2023-05-10T17:19:20.345Z,73.62
2023-05-10T17:21:47.651Z,74.04
2023-05-10T17:24:15.442Z,74.62
2023-05-10T17:26:42.496Z,76.16
2023-05-10T17:29:10.356Z,75.62
2023-05-10T17:31:37.361Z,76.15
2023-05-10T17:34:05.835Z,76.29
2023-05-10T17:36:33.399Z,75.79
2023-05-10T17:39:01.071Z,76.22
2023-05-10T17:41:28.602Z,77.17
2023-05-10T17:43:55.712Z,77.99
2023-05-10T17:46:22.842Z,78.86
2023-05-10T17:48:50.679Z,79.44
2023-05-10T17:51:18.866Z,79.67
2023-05-10T17:53:45.940Z,79.17
2023-05-10T17:56:12.949Z,79.66
2023-05-10T17:58:39.967Z,79.85
2023-05-10T18:01:07.127Z,80.15
2023-05-10T18:03:35.901Z,80.79
2023-05-10T18:06:04.286Z,81.51
2023-05-10T18:08:31.607Z,82.24
2023-05-10T18:10:58.631Z,83.20
2023-05-10T18:13:25.755Z,83.64
2023-05-10T18:15:53.258Z,84.27
2023-05-10T18:18:20.381Z,85.01
2023-05-10T18:20:47.514Z,85.19
2023-05-10T18:23:15.322Z,85.60
2023-05-10T18:25:42.607Z,86.14
2023-05-10T18:28:09.780Z,86.39
2023-05-10T18:30:37.406Z,86.91
2023-05-10T18:33:04.454Z,87.14
2023-05-10T18:35:31.519Z,87.34
2023-05-10T18:37:58.550Z,87.58
2023-05-10T18:40:27.409Z,87.71
2023-05-10T18:42:54.477Z,88.11
2023-05-10T18:45:21.537Z,88.10
2023-05-10T18:47:48.664Z,88.05
2023-05-10T18:50:17.207Z,87.83
2023-05-10T18:52:44.208Z,88.64
2023-05-10T18:55:11.386Z,88.75
2023-05-10T18:57:41.466Z,88.53
2023-05-10T19:00:12.196Z,89.24
2023-05-10T19:02:41.075Z,89.40
2023-05-10T19:05:08.737Z,89.47
2023-05-10T19:07:36.164Z,89.90
2023-05-10T19:10:03.421Z,90.54
2023-05-10T19:12:30.685Z,90.92
2023-05-10T19:14:57.657Z,91.35
2023-05-10T19:17:24.752Z,91.55
2023-05-10T19:19:51.811Z,91.69
2023-05-10T19:22:31.921Z,92.02
2023-05-10T19:25:04.367Z,91.66
2023-05-10T19:27:32.739Z,91.71
2023-05-10T19:30:01.636Z,91.94
2023-05-10T19:32:29.006Z,91.84
2023-05-10T19:34:56.760Z,92.01
2023-05-10T19:37:24.810Z,92.13
2023-05-10T19:39:51.917Z,92.42
2023-05-10T19:42:20.678Z,93.06
2023-05-10T19:44:48.114Z,93.35
2023-05-10T19:47:15.307Z,94.06
2023-05-10T19:49:42.366Z,94.72
2023-05-10T19:52:10.655Z,94.90
2023-05-10T19:54:38.158Z,95.03
2023-05-10T19:57:05.149Z,95.48
2023-05-10T19:59:32.219Z,95.83
2023-05-10T20:01:59.238Z,96.04
2023-05-10T20:04:28.825Z,96.30
2023-05-10T20:06:56.198Z,96.53
2023-05-10T20:09:23.403Z,96.86
2023-05-10T20:11:50.356Z,96.88
2023-05-10T20:14:18.334Z,97.11
2023-05-10T20:16:45.520Z,97.68
2023-05-10T20:19:12.788Z,97.62
2023-05-10T20:21:39.848Z,98.00
2023-05-10T20:24:07.812Z,98.11
2023-05-10T20:26:34.946Z,98.22
2023-05-10T20:29:01.901Z,98.05
2023-05-10T20:31:29.163Z,98.30
2023-05-10T20:33:56.270Z,98.09
2023-05-10T20:36:23.425Z,98.60
2023-05-10T20:38:50.503Z,98.79
2023-05-10T20:41:17.453Z,98.67
2023-05-10T20:43:44.363Z,98.62
2023-05-10T20:46:11.559Z,99.15
2023-05-10T20:48:38.627Z,99.20
2023-05-10T20:51:05.663Z,99.38
2023-05-10T20:53:32.689Z,99.37
2023-05-10T20:55:59.704Z,99.86
2023-05-10T20:58:26.746Z,99.62
2023-05-10T21:00:53.741Z,99.46
2023-05-10T21:03:20.708Z,99.24
2023-05-10T21:05:47.644Z,99.73
2023-05-10T21:08:14.624Z,99.54
2023-05-10T21:10:41.595Z,99.75
2023-05-10T21:13:08.568Z,99.82
2023-05-10T21:15:36.020Z,100.00
2023-05-10T21:18:03.281Z,100.00
2023-05-10T21:20:31.133Z,100.00
2023-05-10T21:22:58.364Z,100.00
2023-05-10T21:25:25.385Z,100.00
2023-05-10T21:27:52.351Z,99.65
2023-05-10T21:30:19.969Z,99.97
2023-05-10T21:32:47.057Z,100.00
2023-05-10T21:35:14.137Z,99.97
2023-05-10T21:37:41.096Z,100.00
2023-05-10T21:40:08.843Z,100.00
2023-05-10T21:42:35.817Z,100.00
2023-05-10T21:45:03.089Z,100.00
2023-05-10T21:47:30.270Z,100.00
2023-05-10T21:49:57.265Z,100.00
2023-05-10T21:52:24.201Z,100.00
2023-05-10T21:54:51.325Z,100.00
2023-05-10T21:57:18.467Z,100.00
2023-05-10T21:59:45.725Z,100.00
2023-05-10T22:02:12.877Z,100.00
2023-05-10T22:04:39.918Z,100.00
2023-05-10T22:07:06.911Z,100.00
2023-05-10T22:09:33.874Z,100.00
2023-05-10T22:12:01.068Z,100.00
2023-05-10T22:14:28.013Z,100.00
2023-05-10T22:16:55.017Z,100.00
2023-05-10T22:19:22.058Z,100.00
2023-05-10T22:21:49.208Z,100.00
2023-05-10T22:24:16.263Z,100.00
2023-05-10T22:26:43.183Z,100.00
2023-05-10T22:29:10.212Z,100.00
2023-05-10T22:31:37.501Z,100.00
2023-05-10T22:34:04.594Z,100.00
2023-05-10T22:36:32.458Z,100.00
2023-05-10T22:38:59.446Z,100.00
2023-05-10T22:41:26.431Z,100.00
2023-05-10T22:43:53.414Z,100.00
2023-05-10T22:46:20.391Z,100.00
2023-05-10T22:48:48.463Z,100.00
2023-05-10T22:51:15.465Z,100.00
2023-05-10T22:53:42.501Z,100.00
2023-05-10T22:56:09.692Z,100.00
2023-05-10T22:58:36.885Z,100.00
2023-05-10T23:01:04.075Z,100.00
2023-05-10T23:03:31.175Z,100.00
2023-05-10T23:05:58.157Z,100.00
2023-05-10T23:08:26.312Z,100.00
2023-05-10T23:10:53.317Z,100.00
2023-05-10T23:13:21.755Z,100.00
2023-05-10T23:15:48.808Z,100.00
2023-05-10T23:18:15.848Z,100.00
2023-05-10T23:20:43.216Z,100.00
2023-05-10T23:23:10.979Z,100.00
2023-05-10T23:25:38.628Z,100.00
2023-05-10T23:28:05.786Z,100.00
2023-05-10T23:30:32.881Z,100.00
2023-05-10T23:32:59.919Z,100.00
2023-05-10T23:35:27.255Z,100.00
2023-05-10T23:37:54.568Z,100.00
2023-05-10T23:40:21.588Z,100.00
2023-05-10T23:42:48.575Z,100.00
2023-05-10T23:45:15.662Z,100.00
2023-05-10T23:47:42.756Z,100.00
2023-05-10T23:50:10.669Z,100.00
2023-05-10T23:52:37.646Z,100.00
2023-05-10T23:55:05.126Z,100.00
2023-05-10T23:57:32.098Z,100.00
2023-05-10T23:59:59.026Z,100.00
